Greenfield Park, New York
Current Conditions -  °F | °C
As of 7:55 AM on Tuesday 21 Oct 2014 (Local Time) from KMSV Reporting Station
Overcast Overcast  
Wind Chill: 41°   Ceiling: 1500
Heat Index: 45°   Visibility: 5mi
Dew Point: 43°   Wind: 6mph
Humidity: 93%   Direction: 90°E
Pressure: 29.9"   Gusts: NA
Location:  41.73°N, 74.49°W
Report Text: KMSV 211155Z 09005KT 5SM BKN015 BKN023 OVC049 07/06 A2990 RMK AO1 70014 60002 70002 10070 20070 54000
Loading
Personal Weather Stations






























Interactive Weather Map
Tropical Storm Tracking
New forecast layout! Learn more

10-Day Weather Forecast

Advertisements
Track Severe Weather on mobile